createdAt,value
2023-01-11T00:02:05.813Z,6.48
2023-01-11T00:04:38.596Z,6.50
2023-01-11T00:07:11.252Z,6.53
2023-01-11T00:09:45.071Z,6.47
2023-01-11T00:12:17.582Z,6.44
2023-01-11T00:14:50.406Z,6.51
2023-01-11T00:17:23.129Z,6.57
2023-01-11T00:19:55.625Z,6.64
2023-01-11T00:22:28.806Z,6.60
2023-01-11T00:25:02.368Z,6.67
2023-01-11T00:27:35.814Z,6.73
2023-01-11T00:30:08.840Z,6.79
2023-01-11T00:32:41.620Z,6.74
2023-01-11T00:35:14.243Z,6.66
2023-01-11T00:37:47.291Z,6.72
2023-01-11T00:40:20.799Z,6.77
2023-01-11T00:43:12.974Z,6.78
2023-01-11T00:46:04.381Z,6.64
2023-01-11T00:48:36.999Z,6.64
2023-01-11T00:51:09.478Z,6.59
2023-01-11T00:53:42.006Z,6.66
2023-01-11T00:56:14.945Z,6.58
2023-01-11T00:58:47.987Z,6.52
2023-01-11T01:01:20.727Z,6.53
2023-01-11T01:03:53.493Z,6.45
2023-01-11T01:06:26.360Z,6.43
2023-01-11T01:08:59.144Z,6.16
2023-01-11T01:11:31.689Z,6.05
2023-01-11T01:14:23.136Z,5.89
2023-01-11T01:17:04.247Z,5.90
2023-01-11T01:19:40.006Z,5.83
2023-01-11T01:22:12.577Z,5.89
2023-01-11T01:24:45.099Z,5.83
2023-01-11T01:27:18.369Z,5.77
2023-01-11T01:29:51.090Z,5.90
2023-01-11T01:32:23.694Z,5.92
2023-01-11T01:34:56.693Z,5.94
2023-01-11T01:37:29.363Z,5.98
2023-01-11T01:40:02.098Z,5.98
2023-01-11T01:42:34.820Z,5.99
2023-01-11T01:45:10.138Z,6.01
2023-01-11T01:47:54.265Z,5.98
2023-01-11T01:50:34.162Z,5.97
2023-01-11T01:53:32.661Z,5.99
2023-01-11T01:56:09.190Z,6.01
2023-01-11T01:58:55.115Z,5.95
2023-01-11T02:01:47.919Z,6.12
2023-01-11T02:04:21.826Z,6.08
2023-01-11T02:07:01.688Z,5.92
2023-01-11T02:10:02.458Z,5.95
2023-01-11T02:13:01.780Z,5.92
2023-01-11T02:15:35.223Z,5.86
2023-01-11T02:18:12.474Z,5.76
2023-01-11T02:21:26.311Z,5.59
2023-01-11T02:24:14.889Z,5.66
2023-01-11T02:27:04.806Z,5.71
2023-01-11T02:30:01.561Z,5.72
2023-01-11T02:32:58.332Z,5.71
2023-01-11T02:35:44.795Z,5.64
2023-01-11T02:38:35.879Z,5.65
2023-01-11T02:41:11.629Z,5.69
2023-01-11T02:44:23.280Z,5.57
2023-01-11T02:47:13.707Z,5.54
2023-01-11T02:49:59.071Z,5.27
2023-01-11T02:53:02.608Z,5.10
2023-01-11T02:55:42.656Z,4.80
2023-01-11T02:58:16.944Z,4.68
2023-01-11T03:00:50.250Z,4.51
2023-01-11T03:03:34.799Z,4.52
2023-01-11T03:06:31.012Z,4.50
2023-01-11T03:09:40.454Z,4.50
2023-01-11T03:12:57.295Z,4.43
2023-01-11T03:16:05.564Z,4.01
2023-01-11T03:18:53.088Z,3.98
2023-01-11T03:21:43.862Z,3.94
2023-01-11T03:24:30.930Z,3.87
2023-01-11T03:27:46.631Z,3.94
2023-01-11T03:30:26.752Z,3.82
2023-01-11T03:33:08.455Z,3.93
2023-01-11T03:35:48.667Z,3.81
2023-01-11T03:38:36.513Z,3.99
2023-01-11T03:41:17.892Z,3.93
2023-01-11T03:43:53.369Z,4.09
2023-01-11T03:46:31.131Z,4.16
2023-01-11T03:49:15.377Z,4.21
2023-01-11T03:51:50.788Z,3.97
2023-01-11T03:54:26.299Z,3.86
2023-01-11T03:57:32.743Z,3.92
2023-01-11T04:00:07.287Z,3.67
2023-01-11T04:02:43.143Z,3.67
2023-01-11T04:05:16.256Z,3.58
2023-01-11T04:07:49.455Z,3.52
2023-01-11T04:10:22.537Z,3.43
2023-01-11T04:12:55.728Z,3.46
2023-01-11T04:15:30.811Z,3.43
2023-01-11T04:18:06.436Z,3.51
2023-01-11T04:20:41.074Z,3.49
2023-01-11T04:23:15.548Z,3.22
2023-01-11T04:25:48.711Z,3.12
2023-01-11T04:28:21.818Z,3.24
2023-01-11T04:30:55.481Z,3.31
2023-01-11T04:33:28.600Z,3.15
2023-01-11T04:36:01.422Z,2.97
2023-01-11T04:38:35.022Z,3.04
2023-01-11T04:41:27.022Z,3.07
2023-01-11T04:44:00.413Z,3.17
2023-01-11T04:46:33.012Z,3.15
2023-01-11T04:49:05.837Z,3.24
2023-01-11T04:51:38.563Z,3.21
2023-01-11T04:54:11.670Z,3.20
2023-01-11T04:56:44.799Z,2.96
2023-01-11T04:59:17.709Z,2.91
2023-01-11T05:01:50.828Z,2.91
2023-01-11T05:04:23.916Z,2.91
2023-01-11T05:06:56.802Z,2.85
2023-01-11T05:09:29.727Z,2.64
2023-01-11T05:12:02.777Z,2.67
2023-01-11T05:14:35.669Z,2.75
2023-01-11T05:17:08.492Z,2.78
2023-01-11T05:19:41.253Z,2.83
2023-01-11T05:22:14.313Z,2.80
2023-01-11T05:24:47.334Z,2.83
2023-01-11T05:27:19.837Z,2.90
2023-01-11T05:29:52.671Z,2.93
2023-01-11T05:32:26.458Z,2.80
2023-01-11T05:34:59.600Z,2.73
2023-01-11T05:37:32.844Z,2.80
2023-01-11T05:40:06.871Z,2.66
2023-01-11T05:42:39.869Z,2.72
2023-01-11T05:45:31.799Z,2.53
2023-01-11T05:48:05.940Z,2.55
2023-01-11T05:50:38.561Z,2.24
2023-01-11T05:53:11.550Z,2.26
2023-01-11T05:55:56.446Z,2.30
2023-01-11T05:58:30.122Z,2.30
2023-01-11T06:01:03.106Z,2.38
2023-01-11T06:03:36.495Z,2.23
2023-01-11T06:06:10.077Z,2.22
2023-01-11T06:08:43.130Z,2.07
2023-01-11T06:11:16.214Z,2.02
2023-01-11T06:13:49.381Z,1.76
2023-01-11T06:16:24.519Z,1.77
2023-01-11T06:18:57.724Z,1.54
2023-01-11T06:21:30.277Z,1.58
2023-01-11T06:24:03.067Z,1.71
2023-01-11T06:26:36.191Z,1.82
2023-01-11T06:29:09.375Z,1.82
2023-01-11T06:31:43.360Z,1.71
2023-01-11T06:34:16.901Z,1.80
2023-01-11T06:36:50.281Z,1.66
2023-01-11T06:39:24.267Z,1.63
2023-01-11T06:41:56.918Z,1.70
2023-01-11T06:44:30.815Z,1.71
2023-01-11T06:47:04.405Z,1.57
2023-01-11T06:49:37.688Z,1.63
2023-01-11T06:52:11.069Z,1.53
2023-01-11T06:54:44.455Z,1.45
2023-01-11T06:57:17.551Z,1.29
2023-01-11T06:59:50.820Z,1.36
2023-01-11T07:02:23.556Z,1.42
2023-01-11T07:04:56.761Z,1.57
2023-01-11T07:07:29.604Z,1.50
2023-01-11T07:10:02.976Z,1.61
2023-01-11T07:12:36.496Z,1.54
2023-01-11T07:15:11.313Z,1.54
2023-01-11T07:17:44.967Z,1.56
2023-01-11T07:20:18.178Z,1.51
2023-01-11T07:22:51.069Z,1.56
2023-01-11T07:25:26.558Z,1.51
2023-01-11T07:28:03.684Z,1.54
2023-01-11T07:30:56.202Z,1.49
2023-01-11T07:33:32.822Z,1.55
2023-01-11T07:36:06.915Z,1.30
2023-01-11T07:38:41.737Z,1.27
2023-01-11T07:41:34.797Z,1.37
2023-01-11T07:44:17.852Z,1.65
2023-01-11T07:46:51.435Z,1.73
2023-01-11T07:49:24.366Z,1.84
2023-01-11T07:51:57.212Z,1.81
2023-01-11T07:54:30.568Z,1.67
2023-01-11T07:57:03.987Z,1.45
2023-01-11T07:59:38.468Z,1.59
2023-01-11T08:02:14.941Z,1.74
2023-01-11T08:04:48.238Z,1.65
2023-01-11T08:07:21.848Z,1.48
2023-01-11T08:09:55.484Z,1.48
2023-01-11T08:12:47.103Z,1.63
2023-01-11T08:15:23.485Z,1.72
2023-01-11T08:17:56.729Z,1.68
2023-01-11T08:20:29.384Z,1.46
2023-01-11T08:23:07.572Z,1.39
2023-01-11T08:25:41.408Z,1.04
2023-01-11T08:28:15.605Z,1.24
2023-01-11T08:30:48.989Z,1.45
2023-01-11T08:33:22.788Z,1.69
2023-01-11T08:35:56.633Z,1.91
2023-01-11T08:38:30.062Z,1.82
2023-01-11T08:41:13.159Z,1.61
2023-01-11T08:43:48.105Z,1.53
2023-01-11T08:46:22.078Z,1.57
2023-01-11T08:48:57.048Z,1.72
2023-01-11T08:51:30.464Z,1.67
2023-01-11T08:54:03.365Z,1.73
2023-01-11T08:56:37.057Z,1.84
2023-01-11T08:59:12.356Z,1.71
2023-01-11T09:01:46.437Z,1.57
2023-01-11T09:04:25.171Z,1.52
2023-01-11T09:06:59.375Z,1.63
2023-01-11T09:09:33.459Z,1.62
2023-01-11T09:12:07.021Z,1.82
2023-01-11T09:14:40.970Z,1.85
2023-01-11T09:17:13.917Z,1.91
2023-01-11T09:19:47.320Z,1.89
2023-01-11T09:22:21.212Z,1.96
2023-01-11T09:24:55.941Z,1.83
2023-01-11T09:27:29.452Z,1.65
2023-01-11T09:30:03.429Z,1.85
2023-01-11T09:32:36.722Z,1.77
2023-01-11T09:35:11.562Z,1.56
2023-01-11T09:37:49.045Z,1.54
2023-01-11T09:40:36.113Z,1.44
2023-01-11T09:43:15.479Z,1.67
2023-01-11T09:45:53.055Z,1.74
2023-01-11T09:48:37.146Z,1.77
2023-01-11T09:51:16.725Z,1.63
2023-01-11T09:53:55.008Z,1.80
2023-01-11T09:56:37.271Z,1.77
2023-01-11T09:59:35.377Z,1.75
2023-01-11T10:02:36.954Z,1.71
2023-01-11T10:05:30.412Z,1.71
2023-01-11T10:18:30.455Z,2.16
2023-01-11T10:18:31.573Z,2.23
2023-01-11T10:21:30.478Z,2.29
2023-01-11T10:24:22.005Z,2.15
2023-01-11T10:27:08.882Z,2.12
2023-01-11T10:30:14.899Z,1.68
2023-01-11T10:33:09.593Z,1.83
2023-01-11T10:36:10.345Z,2.00
2023-01-11T10:39:29.199Z,2.02
2023-01-11T10:42:13.723Z,2.10
2023-01-11T10:44:53.025Z,2.11
2023-01-11T10:47:41.831Z,1.83
2023-01-11T10:50:55.216Z,1.95
2023-01-11T10:53:34.411Z,1.99
2023-01-11T10:56:20.403Z,1.75
2023-01-11T10:59:16.846Z,1.82
2023-01-11T11:02:22.452Z,2.06
2023-01-11T11:05:16.019Z,2.00
2023-01-11T11:08:03.384Z,2.00
2023-01-11T11:10:48.558Z,1.99
2023-01-11T11:13:48.579Z,2.13
2023-01-11T11:16:26.536Z,2.12
2023-01-11T11:19:02.311Z,1.98
2023-01-11T11:21:44.612Z,1.96
2023-01-11T11:24:33.848Z,1.93
2023-01-11T11:27:21.877Z,1.92
2023-01-11T11:29:57.683Z,1.82
2023-01-11T11:32:36.929Z,1.84
2023-01-11T11:35:30.539Z,1.80
2023-01-11T11:38:04.270Z,1.88
2023-01-11T11:40:39.410Z,1.98
2023-01-11T11:43:24.694Z,2.04
2023-01-11T11:46:01.130Z,2.22
2023-01-11T11:48:37.801Z,2.02
2023-01-11T11:51:22.969Z,1.96
2023-01-11T11:53:58.162Z,1.95
2023-01-11T11:56:38.418Z,1.90
2023-01-11T11:59:19.658Z,1.83
2023-01-11T12:02:06.212Z,1.62
2023-01-11T12:04:49.285Z,1.68
2023-01-11T12:07:22.822Z,1.78
2023-01-11T12:10:13.019Z,1.79
2023-01-11T12:13:03.582Z,1.71
2023-01-11T12:15:38.044Z,1.64
2023-01-11T12:18:33.894Z,1.55
2023-01-11T12:21:25.072Z,1.49
2023-01-11T12:24:11.372Z,1.62
2023-01-11T12:27:20.262Z,1.48
2023-01-11T12:30:12.145Z,1.59
2023-01-11T12:33:00.173Z,1.73
2023-01-11T12:35:51.867Z,1.52
2023-01-11T12:38:34.063Z,1.65
2023-01-11T12:41:51.697Z,1.97
2023-01-11T12:44:35.909Z,2.11
2023-01-11T12:47:23.553Z,1.92
2023-01-11T12:50:09.346Z,2.00
2023-01-11T12:52:54.670Z,1.97
2023-01-11T12:55:45.320Z,1.94
2023-01-11T12:58:50.754Z,2.08
2023-01-11T13:01:49.821Z,2.11
2023-01-11T13:04:42.879Z,2.01
2023-01-11T13:07:24.678Z,1.98
2023-01-11T13:10:18.251Z,1.94
2023-01-11T13:13:06.461Z,1.92
2023-01-11T13:16:02.911Z,1.87
2023-01-11T13:18:58.021Z,1.89
2023-01-11T13:21:45.069Z,1.77
2023-01-11T13:24:25.904Z,1.75
2023-01-11T13:27:06.651Z,1.46
2023-01-11T13:29:51.837Z,1.69
2023-01-11T13:32:38.607Z,1.66
2023-01-11T13:35:23.667Z,1.60
2023-01-11T13:38:07.441Z,1.73
2023-01-11T13:40:48.229Z,1.72
2023-01-11T13:43:49.023Z,1.74
2023-01-11T13:46:40.909Z,1.46
2023-01-11T13:49:39.167Z,1.43
2023-01-11T13:52:40.804Z,1.45
2023-01-11T13:55:40.665Z,1.41
2023-01-11T13:58:16.009Z,1.41
2023-01-11T14:01:03.121Z,1.54
2023-01-11T14:03:51.949Z,1.46
2023-01-11T14:06:57.923Z,1.11
2023-01-11T14:10:00.818Z,0.72
2023-01-11T14:12:57.135Z,0.85
2023-01-11T14:15:54.767Z,0.92
2023-01-11T14:18:44.147Z,0.91
2023-01-11T14:21:29.911Z,0.99
2023-01-11T14:24:05.407Z,0.91
2023-01-11T14:27:02.044Z,0.89
2023-01-11T14:30:01.673Z,0.50
2023-01-11T14:32:59.591Z,0.47
2023-01-11T14:36:04.271Z,0.20
2023-01-11T14:38:59.153Z,0.26
2023-01-11T14:42:02.284Z,0.47
2023-01-11T14:44:50.071Z,0.64
2023-01-11T14:47:45.964Z,0.63
2023-01-11T14:50:55.512Z,0.76
2023-01-11T14:53:35.448Z,0.90
2023-01-11T14:56:48.836Z,0.97
2023-01-11T14:59:33.937Z,1.13
2023-01-11T15:02:06.834Z,1.33
2023-01-11T15:04:59.364Z,1.24
2023-01-11T15:07:34.207Z,1.33
2023-01-11T15:10:30.950Z,1.43
2023-01-11T15:13:09.297Z,1.37
2023-01-11T15:16:01.263Z,1.48
2023-01-11T15:18:41.602Z,1.49
2023-01-11T15:21:24.474Z,1.42
2023-01-11T15:24:00.160Z,1.43
2023-01-11T15:26:33.419Z,1.41
2023-01-11T15:29:06.342Z,1.36
2023-01-11T15:31:40.456Z,1.31
2023-01-11T15:34:51.841Z,1.32
2023-01-11T15:38:04.797Z,1.23
2023-01-11T15:40:43.425Z,1.18
2023-01-11T15:43:31.609Z,1.11
2023-01-11T15:46:54.699Z,1.06
2023-01-11T15:49:55.104Z,0.98
2023-01-11T15:52:55.616Z,0.77
2023-01-11T15:55:51.247Z,0.73
2023-01-11T15:58:59.288Z,0.84
2023-01-11T16:01:34.226Z,0.82
2023-01-11T16:04:43.625Z,0.88
2023-01-11T16:07:31.786Z,1.00
2023-01-11T16:10:40.079Z,1.11
2023-01-11T16:13:42.394Z,0.93
2023-01-11T16:16:20.821Z,0.88
2023-01-11T16:19:01.030Z,0.96
2023-01-11T16:21:41.838Z,1.02
2023-01-11T16:24:24.084Z,0.99
2023-01-11T16:26:58.821Z,0.89
2023-01-11T16:29:36.518Z,0.99
2023-01-11T16:32:22.098Z,1.00
2023-01-11T16:34:56.300Z,0.88
2023-01-11T16:37:51.903Z,0.95
2023-01-11T16:40:38.925Z,0.87
2023-01-11T16:43:31.424Z,0.80
2023-01-11T16:46:04.614Z,0.67
2023-01-11T16:48:37.536Z,0.63
2023-01-11T16:51:17.669Z,0.58
2023-01-11T16:54:03.212Z,0.69
2023-01-11T16:56:37.061Z,0.70
2023-01-11T16:59:29.598Z,0.71
2023-01-11T17:02:07.615Z,0.72
2023-01-11T17:04:54.758Z,0.29
2023-01-11T17:07:32.291Z,0.18
2023-01-11T17:10:26.246Z,0.17
2023-01-11T17:13:39.494Z,0.16
2023-01-11T17:16:17.250Z,0.23
2023-01-11T17:18:50.554Z,0.33
2023-01-11T17:21:28.329Z,0.52
2023-01-11T17:24:06.922Z,0.61
2023-01-11T17:26:53.702Z,0.74
2023-01-11T17:29:43.233Z,0.83
2023-01-11T17:32:47.110Z,0.76
2023-01-11T17:35:23.282Z,0.86
2023-01-11T17:37:59.557Z,0.88
2023-01-11T17:40:40.626Z,0.93
2023-01-11T17:43:46.260Z,0.82
2023-01-11T17:46:26.854Z,0.77
2023-01-11T17:49:01.372Z,0.76
2023-01-11T17:51:36.650Z,0.77
2023-01-11T17:54:22.573Z,0.64
2023-01-11T17:57:04.223Z,0.57
2023-01-11T17:59:37.720Z,0.60
2023-01-11T18:02:15.848Z,0.65
2023-01-11T18:05:00.364Z,0.66
2023-01-11T18:07:33.459Z,0.60
2023-01-11T18:10:06.579Z,0.66
2023-01-11T18:12:41.280Z,0.77
2023-01-11T18:15:24.877Z,0.76
2023-01-11T18:17:58.216Z,0.83
2023-01-11T18:20:36.395Z,0.93
2023-01-11T18:23:14.305Z,0.93
2023-01-11T18:25:47.720Z,0.97
2023-01-11T18:28:32.227Z,0.90
2023-01-11T18:31:05.893Z,1.01
2023-01-11T18:33:42.261Z,1.03
2023-01-11T18:36:26.714Z,1.07
2023-01-11T18:39:01.283Z,0.92
2023-01-11T18:41:53.719Z,0.96
2023-01-11T18:44:25.825Z,0.87
2023-01-11T18:46:58.610Z,0.76
2023-01-11T18:49:31.675Z,0.73
2023-01-11T18:52:05.555Z,0.82
2023-01-11T18:54:38.884Z,0.70
2023-01-11T18:57:11.836Z,0.74
2023-01-11T18:59:45.144Z,0.70
2023-01-11T19:02:43.410Z,0.86
2023-01-11T19:05:20.759Z,0.53
2023-01-11T19:07:54.527Z,0.40
2023-01-11T19:10:27.876Z,0.41
2023-01-11T19:13:02.015Z,0.43
2023-01-11T19:15:37.678Z,0.48
2023-01-11T19:18:11.122Z,0.45
2023-01-11T19:20:45.732Z,0.48
2023-01-11T19:23:18.540Z,0.46
2023-01-11T19:26:02.459Z,0.39
2023-01-11T19:28:36.255Z,0.38
2023-01-11T19:31:15.000Z,0.52
2023-01-11T19:33:48.547Z,0.57
2023-01-11T19:36:22.181Z,0.64
2023-01-11T19:38:55.507Z,0.62
2023-01-11T19:41:30.041Z,0.78
2023-01-11T19:44:02.936Z,0.85
2023-01-11T19:46:36.282Z,0.56
2023-01-11T19:49:09.771Z,0.72
2023-01-11T19:51:43.244Z,0.62
2023-01-11T19:54:17.067Z,0.59
2023-01-11T19:56:50.809Z,0.51
2023-01-11T19:59:23.475Z,0.61
2023-01-11T20:01:56.890Z,0.60
2023-01-11T20:04:29.922Z,0.74
2023-01-11T20:07:03.426Z,0.70
2023-01-11T20:09:38.396Z,0.55
2023-01-11T20:12:17.954Z,0.60
2023-01-11T20:14:55.326Z,0.58
2023-01-11T20:17:30.897Z,0.57
2023-01-11T20:20:04.839Z,0.59
2023-01-11T20:22:37.740Z,0.60
2023-01-11T20:25:13.205Z,0.48
2023-01-11T20:27:46.446Z,0.43
2023-01-11T20:30:19.526Z,0.40
2023-01-11T20:32:52.801Z,0.37
2023-01-11T20:35:30.717Z,0.58
2023-01-11T20:38:03.670Z,0.40
2023-01-11T20:40:36.600Z,0.42
2023-01-11T20:43:11.714Z,0.53
2023-01-11T20:45:45.676Z,0.58
2023-01-11T20:48:18.759Z,0.40
2023-01-11T20:50:52.254Z,0.29
2023-01-11T20:53:25.945Z,0.30
2023-01-11T20:55:59.580Z,0.32
2023-01-11T20:58:33.222Z,0.31
2023-01-11T21:01:14.248Z,0.26
2023-01-11T21:03:47.470Z,0.27
2023-01-11T21:06:20.432Z,0.20
2023-01-11T21:08:57.627Z,0.31
2023-01-11T21:11:33.448Z,0.31
2023-01-11T21:14:14.234Z,0.40
2023-01-11T21:16:47.460Z,0.28
2023-01-11T21:19:21.434Z,0.29
2023-01-11T21:21:55.124Z,0.26
2023-01-11T21:24:28.750Z,0.37
2023-01-11T21:27:01.984Z,0.47
2023-01-11T21:29:35.021Z,0.53
2023-01-11T21:32:08.615Z,0.50
2023-01-11T21:34:42.312Z,0.51
2023-01-11T21:37:15.736Z,0.57
2023-01-11T21:39:49.647Z,0.45
2023-01-11T21:42:22.900Z,0.39
2023-01-11T21:44:55.997Z,0.32
2023-01-11T21:47:29.682Z,0.06
2023-01-11T21:50:03.272Z,-0.01
2023-01-11T21:52:36.571Z,0.17
2023-01-11T21:55:11.675Z,0.21
2023-01-11T21:57:45.128Z,0.21
2023-01-11T22:00:19.837Z,0.33
2023-01-11T22:02:53.726Z,0.43
2023-01-11T22:05:27.166Z,0.45
2023-01-11T22:08:00.134Z,0.47
2023-01-11T22:10:33.942Z,0.42
2023-01-11T22:13:07.288Z,0.38
2023-01-11T22:15:40.809Z,0.35
2023-01-11T22:18:14.133Z,0.26
2023-01-11T22:20:47.610Z,0.25
2023-01-11T22:23:20.748Z,0.41
2023-01-11T22:25:54.058Z,0.44
2023-01-11T22:28:28.033Z,0.50
2023-01-11T22:31:08.753Z,0.63
2023-01-11T22:33:43.497Z,0.57
2023-01-11T22:36:16.541Z,0.62
2023-01-11T22:38:49.660Z,0.59
2023-01-11T22:41:23.556Z,0.72
2023-01-11T22:43:56.967Z,0.81
2023-01-11T22:46:30.720Z,0.79
2023-01-11T22:49:06.417Z,0.87
2023-01-11T22:51:40.072Z,0.90
2023-01-11T22:54:13.726Z,0.82
2023-01-11T22:56:46.777Z,0.84
2023-01-11T22:59:20.159Z,0.85
2023-01-11T23:01:54.335Z,0.92
2023-01-11T23:04:27.662Z,0.90
2023-01-11T23:07:01.029Z,0.81
2023-01-11T23:09:34.422Z,0.83
2023-01-11T23:12:27.859Z,0.79
2023-01-11T23:15:00.916Z,0.77
2023-01-11T23:17:36.872Z,0.76
2023-01-11T23:20:10.472Z,0.70
2023-01-11T23:22:43.413Z,0.72
2023-01-11T23:25:16.354Z,0.83
2023-01-11T23:27:49.565Z,0.82
2023-01-11T23:30:22.610Z,0.69
2023-01-11T23:32:56.329Z,0.83
2023-01-11T23:35:30.045Z,0.83
2023-01-11T23:38:03.896Z,0.72
2023-01-11T23:41:01.105Z,0.75
2023-01-11T23:43:34.352Z,0.74
2023-01-11T23:46:26.267Z,0.80
2023-01-11T23:48:59.444Z,0.84
2023-01-11T23:51:32.716Z,0.90
2023-01-11T23:54:07.473Z,0.89
2023-01-11T23:56:41.019Z,0.89
2023-01-11T23:59:14.263Z,0.77
